createdAt,value
2023-04-26T00:00:29.595Z,94408.09
2023-04-26T00:02:58.112Z,94335.50
2023-04-26T00:05:27.352Z,94401.22
2023-04-26T00:07:55.619Z,94410.97
2023-04-26T00:10:23.972Z,94416.16
2023-04-26T00:12:52.463Z,94397.66
2023-04-26T00:15:20.808Z,94391.19
2023-04-26T00:17:50.934Z,94382.78
2023-04-26T00:20:19.488Z,94383.22
2023-04-26T00:22:47.896Z,94381.03
2023-04-26T00:25:16.185Z,94384.78
2023-04-26T00:27:44.509Z,94381.91
2023-04-26T00:30:13.618Z,94387.31
2023-04-26T00:32:41.898Z,94387.22
2023-04-26T00:35:12.175Z,94391.41
2023-04-26T00:37:40.482Z,94400.13
2023-04-26T00:40:10.615Z,94397.13
2023-04-26T00:42:40.020Z,94399.78
2023-04-26T00:45:09.723Z,94404.19
2023-04-26T00:47:38.322Z,94389.34
2023-04-26T00:50:10.676Z,94405.28
2023-04-26T00:52:40.874Z,94403.09
2023-04-26T00:55:10.392Z,94396.50
2023-04-26T00:57:39.065Z,94393.38
2023-04-26T01:00:08.806Z,94399.50
2023-04-26T01:02:37.915Z,94406.09
2023-04-26T01:05:07.148Z,94397.56
2023-04-26T01:07:36.730Z,94408.19
2023-04-26T01:10:07.191Z,94376.59
2023-04-26T01:12:35.472Z,94414.69
2023-04-26T01:15:05.465Z,94414.94
2023-04-26T01:17:33.955Z,94414.78
2023-04-26T01:20:02.425Z,94406.38
2023-04-26T01:22:36.477Z,94396.88
2023-04-26T01:25:09.150Z,94400.59
2023-04-26T01:27:37.538Z,94404.97
2023-04-26T01:30:06.456Z,94396.09
2023-04-26T01:32:35.106Z,94407.16
2023-04-26T01:35:03.534Z,94408.97
2023-04-26T01:37:31.750Z,94409.97
2023-04-26T01:40:01.454Z,94393.75
2023-04-26T01:42:29.809Z,94415.47
2023-04-26T01:44:57.997Z,94406.16
2023-04-26T01:47:26.626Z,94395.00
2023-04-26T01:49:55.092Z,94392.75
2023-04-26T01:52:24.193Z,94397.47
2023-04-26T01:54:52.568Z,94386.50
2023-04-26T01:57:22.258Z,94390.41
2023-04-26T01:59:50.478Z,94391.72
2023-04-26T02:02:19.178Z,94397.50
2023-04-26T02:04:47.490Z,94394.84
2023-04-26T02:07:15.811Z,94389.13
2023-04-26T02:09:44.107Z,94389.41
2023-04-26T02:12:12.361Z,94385.78
2023-04-26T02:14:42.049Z,94307.13
2023-04-26T02:17:11.406Z,94383.03
2023-04-26T02:19:39.707Z,94383.53
2023-04-26T02:22:08.117Z,94376.53
2023-04-26T02:24:36.351Z,94374.50
2023-04-26T02:27:05.641Z,94319.31
2023-04-26T02:29:42.829Z,94384.06
2023-04-26T02:32:13.707Z,94379.69
2023-04-26T02:34:41.915Z,94373.34
2023-04-26T02:37:10.268Z,94372.66
2023-04-26T02:39:38.632Z,94367.16
2023-04-26T02:42:10.498Z,94372.13
2023-04-26T02:44:39.873Z,94375.91
2023-04-26T02:47:08.541Z,94381.09
2023-04-26T02:49:38.255Z,94387.19
2023-04-26T02:52:06.623Z,94380.03
2023-04-26T02:54:35.036Z,94373.13
2023-04-26T02:57:03.956Z,94371.09
2023-04-26T02:59:32.627Z,94367.41
2023-04-26T03:02:00.925Z,94369.72
2023-04-26T03:04:30.362Z,94369.75
2023-04-26T03:07:00.058Z,94375.47
2023-04-26T03:09:28.412Z,94371.34
2023-04-26T03:11:56.706Z,94375.50
2023-04-26T03:14:25.150Z,94370.91
2023-04-26T03:16:53.716Z,94370.00
2023-04-26T03:19:22.227Z,94369.66
2023-04-26T03:21:50.543Z,94370.06
2023-04-26T03:24:20.234Z,94372.25
2023-04-26T03:26:48.536Z,94372.72
2023-04-26T03:29:18.293Z,94353.94
2023-04-26T03:31:46.559Z,94333.81
2023-04-26T03:34:14.828Z,94361.78
2023-04-26T03:36:43.098Z,94320.09
2023-04-26T03:39:11.702Z,94371.34
2023-04-26T03:41:41.399Z,94363.41
2023-04-26T03:44:09.871Z,94277.91
2023-04-26T03:46:38.236Z,94358.53
2023-04-26T03:49:06.560Z,94348.50
2023-04-26T03:51:34.792Z,94360.75
2023-04-26T03:54:03.873Z,94320.47
2023-04-26T03:56:32.205Z,94367.25
2023-04-26T03:59:02.119Z,94366.06
2023-04-26T04:01:30.423Z,94365.34
2023-04-26T04:03:58.939Z,94373.28
2023-04-26T04:06:28.236Z,94370.09
2023-04-26T04:08:56.560Z,94323.84
2023-04-26T04:11:24.810Z,94371.81
2023-04-26T04:13:53.156Z,94371.97
2023-04-26T04:16:22.982Z,94376.47
2023-04-26T04:18:51.455Z,94350.38
2023-04-26T04:21:19.850Z,94376.78
2023-04-26T04:23:48.578Z,94373.78
2023-04-26T04:26:17.622Z,94377.16
2023-04-26T04:28:47.406Z,94386.66
2023-04-26T04:31:16.133Z,94377.53
2023-04-26T04:33:45.909Z,94390.13
2023-04-26T04:36:16.970Z,94334.66
2023-04-26T04:38:45.339Z,94389.63
2023-04-26T04:41:14.587Z,94392.28
2023-04-26T04:43:42.912Z,94370.66
2023-04-26T04:46:12.734Z,94393.91
2023-04-26T04:48:41.655Z,94394.16
2023-04-26T04:51:12.154Z,94398.38
2023-04-26T04:53:40.515Z,94397.22
2023-04-26T04:56:09.174Z,94381.31
2023-04-26T04:58:37.490Z,94398.94
2023-04-26T05:01:06.208Z,94396.13
2023-04-26T05:03:35.152Z,94389.09
2023-04-26T05:06:03.927Z,94388.66
2023-04-26T05:08:33.628Z,94383.03
2023-04-26T05:11:01.986Z,94382.53
2023-04-26T05:13:30.291Z,94386.81
2023-04-26T05:15:58.571Z,94379.75
2023-04-26T05:18:27.437Z,94364.09
2023-04-26T05:20:55.710Z,94383.31
2023-04-26T05:23:23.971Z,94379.94
2023-04-26T05:25:53.754Z,94381.16
2023-04-26T05:28:22.096Z,94388.59
2023-04-26T05:30:50.742Z,94381.78
2023-04-26T05:33:19.185Z,94341.16
2023-04-26T05:35:47.535Z,94386.75
2023-04-26T05:38:15.922Z,94374.53
2023-04-26T05:40:44.200Z,94384.81
2023-04-26T05:43:13.869Z,94378.03
2023-04-26T05:45:42.368Z,94377.09
2023-04-26T05:48:10.807Z,94378.88
2023-04-26T05:50:40.082Z,94361.69
2023-04-26T05:53:08.427Z,94375.16
2023-04-26T05:55:36.819Z,94304.22
2023-04-26T05:58:05.267Z,94382.66
2023-04-26T06:00:35.150Z,94381.06
2023-04-26T06:03:03.695Z,94358.91
2023-04-26T06:05:32.584Z,94373.94
2023-04-26T06:08:01.696Z,94370.94
2023-04-26T06:10:30.050Z,94368.94
2023-04-26T06:12:58.438Z,94370.44
2023-04-26T06:15:27.919Z,94346.06
2023-04-26T06:17:57.684Z,94369.03
2023-04-26T06:20:25.957Z,94376.88
2023-04-26T06:22:54.649Z,94363.94
2023-04-26T06:25:22.950Z,94366.38
2023-04-26T06:27:51.268Z,94366.94
2023-04-26T06:30:19.705Z,94361.78
2023-04-26T06:32:47.970Z,94364.28
2023-04-26T06:35:17.916Z,94348.41
2023-04-26T06:37:46.262Z,94357.97
2023-04-26T06:40:16.051Z,94351.53
2023-04-26T06:42:44.403Z,94336.25
2023-04-26T06:45:14.201Z,94340.09
2023-04-26T06:47:42.591Z,94364.28
2023-04-26T06:50:12.138Z,94348.63
2023-04-26T06:52:41.792Z,94332.34
2023-04-26T06:55:11.203Z,94368.38
2023-04-26T06:57:39.563Z,94371.66
2023-04-26T07:00:11.520Z,94371.53
2023-04-26T07:02:39.966Z,94333.41
2023-04-26T07:05:08.988Z,94365.09
2023-04-26T07:07:37.357Z,94379.38
2023-04-26T07:10:08.451Z,94380.50
2023-04-26T07:12:36.811Z,94354.47
2023-04-26T07:15:06.792Z,94360.41
2023-04-26T07:17:35.137Z,94379.41
2023-04-26T07:20:04.275Z,94374.03
2023-04-26T07:22:32.521Z,94378.34
2023-04-26T07:25:01.143Z,94382.97
2023-04-26T07:27:31.753Z,94334.09
2023-04-26T07:30:00.072Z,94385.09
2023-04-26T07:32:28.678Z,94381.63
2023-04-26T07:34:57.375Z,94388.19
2023-04-26T07:37:25.749Z,94386.44
2023-04-26T07:39:54.113Z,94393.78
2023-04-26T07:42:22.424Z,94394.09
2023-04-26T07:44:52.138Z,94367.63
2023-04-26T07:47:20.404Z,94392.41
2023-04-26T07:49:48.818Z,94393.53
2023-04-26T07:52:17.056Z,94377.16
2023-04-26T07:54:47.262Z,94341.50
2023-04-26T07:57:15.655Z,94336.41
2023-04-26T07:59:44.925Z,94371.63
2023-04-26T08:02:14.727Z,94364.63
2023-04-26T08:04:49.911Z,94357.81
2023-04-26T08:07:18.348Z,94364.28
2023-04-26T08:09:46.820Z,94361.28
2023-04-26T08:12:15.348Z,94334.19
2023-04-26T08:14:43.757Z,94369.50
2023-04-26T08:17:12.496Z,94282.22
2023-04-26T08:19:42.272Z,94369.22
2023-04-26T08:22:10.582Z,94349.81
2023-04-26T08:24:38.861Z,94360.28
2023-04-26T08:27:07.151Z,94362.53
2023-04-26T08:29:35.512Z,94352.53
2023-04-26T08:32:03.891Z,94364.81
2023-04-26T08:34:32.219Z,94335.66
2023-04-26T08:37:02.129Z,94368.25
2023-04-26T08:39:30.452Z,94366.94
2023-04-26T08:42:05.982Z,94368.41
2023-04-26T08:44:36.743Z,94362.78
2023-04-26T08:47:11.565Z,94371.53
2023-04-26T08:49:42.554Z,94321.53
2023-04-26T08:52:13.806Z,94368.66
2023-04-26T08:54:43.170Z,94360.47
2023-04-26T08:57:11.594Z,94297.75
2023-04-26T08:59:41.095Z,94358.41
2023-04-26T09:02:17.284Z,94357.88
2023-04-26T09:04:45.918Z,94366.78
2023-04-26T09:07:22.177Z,94368.13
2023-04-26T09:09:52.170Z,94357.03
2023-04-26T09:12:21.639Z,94312.84
2023-04-26T09:14:50.084Z,94382.53
2023-04-26T09:17:28.665Z,94379.88
2023-04-26T09:19:57.062Z,94375.66
2023-04-26T09:22:37.379Z,94321.69
2023-04-26T09:25:07.327Z,94366.72
2023-04-26T09:27:38.145Z,94357.44
2023-04-26T09:30:09.675Z,94360.44
2023-04-26T09:32:50.205Z,94357.47
2023-04-26T09:35:27.863Z,94355.88
2023-04-26T09:38:05.989Z,94344.53
2023-04-26T09:40:41.156Z,94311.16
2023-04-26T09:43:12.095Z,94320.03
2023-04-26T09:45:49.321Z,94341.63
2023-04-26T09:48:21.393Z,94345.41
2023-04-26T09:50:50.892Z,94337.41
2023-04-26T09:53:34.737Z,94336.63
2023-04-26T09:56:10.412Z,94333.72
2023-04-26T09:58:39.892Z,94328.13
2023-04-26T10:01:10.212Z,94333.00
2023-04-26T10:03:39.765Z,94328.78
2023-04-26T10:06:08.907Z,94331.34
2023-04-26T10:08:38.778Z,94327.53
2023-04-26T10:11:09.878Z,94323.69
2023-04-26T10:13:38.608Z,94316.16
2023-04-26T10:16:07.780Z,94300.97
2023-04-26T10:18:36.068Z,94313.44
2023-04-26T10:21:11.318Z,94296.28
2023-04-26T10:23:42.308Z,94301.19
2023-04-26T10:26:52.141Z,94297.41
2023-04-26T10:29:20.748Z,94216.88
2023-04-26T10:32:09.553Z,94287.47
2023-04-26T10:34:39.083Z,94291.72
2023-04-26T10:37:12.001Z,94291.81
2023-04-26T10:39:43.047Z,94279.28
2023-04-26T10:42:26.859Z,94275.72
2023-04-26T10:44:56.907Z,94279.53
2023-04-26T10:47:30.633Z,94271.75
2023-04-26T10:50:07.401Z,94276.31
2023-04-26T10:52:36.753Z,94264.38
2023-04-26T10:55:08.122Z,94264.59
2023-04-26T10:57:54.143Z,94265.59
2023-04-26T11:00:30.886Z,94267.50
2023-04-26T11:03:13.029Z,94264.94
2023-04-26T11:05:54.533Z,94242.28
2023-04-26T11:08:27.338Z,94223.78
2023-04-26T11:11:10.286Z,94253.34
2023-04-26T11:13:39.953Z,94179.50
2023-04-26T11:16:10.154Z,94172.38
2023-04-26T11:18:42.168Z,94254.22
2023-04-26T11:21:11.070Z,94249.72
2023-04-26T11:23:39.615Z,94242.38
2023-04-26T11:26:10.485Z,94249.38
2023-04-26T11:28:40.508Z,94248.16
2023-04-26T11:31:09.613Z,94249.38
2023-04-26T11:33:38.023Z,94246.16
2023-04-26T11:36:07.918Z,94247.50
2023-04-26T11:38:36.307Z,94246.94
2023-04-26T11:41:05.499Z,94246.75
2023-04-26T11:43:39.198Z,94215.34
2023-04-26T11:46:10.139Z,94235.28
2023-04-26T11:48:39.936Z,94196.72
2023-04-26T11:51:12.035Z,94187.53
2023-04-26T11:53:42.058Z,94235.31
2023-04-26T11:56:17.981Z,94211.03
2023-04-26T11:58:49.274Z,94241.97
2023-04-26T12:01:24.792Z,94234.53
2023-04-26T12:03:54.502Z,94226.19
2023-04-26T12:06:28.596Z,94227.66
2023-04-26T12:08:58.205Z,94219.50
2023-04-26T12:11:27.213Z,94221.06
2023-04-26T12:13:59.739Z,94213.91
2023-04-26T12:16:28.067Z,94184.53
2023-04-26T12:18:57.903Z,94230.50
2023-04-26T12:21:30.289Z,94236.34
2023-04-26T12:23:59.253Z,94251.78
2023-04-26T12:26:44.448Z,94247.03
2023-04-26T12:29:14.182Z,94246.31
2023-04-26T12:31:42.776Z,94246.84
2023-04-26T12:34:11.092Z,94249.44
2023-04-26T12:36:42.270Z,94258.78
2023-04-26T12:39:13.533Z,94257.38
2023-04-26T12:41:42.208Z,94238.44
2023-04-26T12:44:11.184Z,94239.47
2023-04-26T12:47:06.769Z,94269.69
2023-04-26T12:49:34.970Z,94208.25
2023-04-26T12:52:03.691Z,94260.13
2023-04-26T12:54:32.124Z,94274.66
2023-04-26T12:57:00.622Z,94274.53
2023-04-26T12:59:29.090Z,94175.78
2023-04-26T13:01:58.966Z,94259.78
2023-04-26T13:04:27.553Z,94277.28
2023-04-26T13:06:56.150Z,94280.06
2023-04-26T13:09:24.405Z,94291.63
2023-04-26T13:11:52.745Z,94292.56
2023-04-26T13:14:29.082Z,94293.94
2023-04-26T13:16:58.840Z,94221.59
2023-04-26T13:19:27.187Z,94171.56
2023-04-26T13:21:55.486Z,94289.13
2023-04-26T13:24:23.780Z,94319.19
2023-04-26T13:26:52.091Z,94320.47
2023-04-26T13:29:20.354Z,94322.34
2023-04-26T13:31:48.769Z,94325.53
2023-04-26T13:34:18.868Z,94293.06
2023-04-26T13:36:48.451Z,94290.19
2023-04-26T13:39:16.744Z,94337.00
2023-04-26T13:41:45.160Z,94340.25
2023-04-26T13:44:14.394Z,94345.47
2023-04-26T13:46:43.015Z,94345.63
2023-04-26T13:49:11.490Z,94303.56
2023-04-26T13:51:41.905Z,94333.13
2023-04-26T13:54:11.613Z,94356.75
2023-04-26T13:56:39.956Z,94347.56
2023-04-26T13:59:08.278Z,94349.41
2023-04-26T14:01:37.246Z,94350.06
2023-04-26T14:04:06.407Z,94362.81
2023-04-26T14:06:35.999Z,94356.97
2023-04-26T14:09:07.016Z,94361.34
2023-04-26T14:11:35.347Z,94365.47
2023-04-26T14:14:04.080Z,94321.44
2023-04-26T14:16:32.421Z,94367.88
2023-04-26T14:19:00.789Z,94374.31
2023-04-26T14:21:29.109Z,94379.19
2023-04-26T14:23:58.010Z,94373.66
2023-04-26T14:26:27.805Z,94376.41
2023-04-26T14:28:56.178Z,94365.34
2023-04-26T14:31:26.285Z,94381.94
2023-04-26T14:33:54.635Z,94377.84
2023-04-26T14:36:22.900Z,94390.31
2023-04-26T14:38:51.340Z,94397.56
2023-04-26T14:41:20.504Z,94401.31
2023-04-26T14:43:50.777Z,94406.25
2023-04-26T14:46:19.115Z,94411.94
2023-04-26T14:48:47.751Z,94406.19
2023-04-26T14:51:16.202Z,94403.84
2023-04-26T14:53:44.529Z,94407.69
2023-04-26T14:56:13.013Z,94407.78
2023-04-26T14:58:41.468Z,94406.38
2023-04-26T15:01:11.217Z,94389.94
2023-04-26T15:03:39.911Z,94412.53
2023-04-26T15:06:10.066Z,94327.34
2023-04-26T15:08:38.419Z,94418.00
2023-04-26T15:11:06.825Z,94429.97
2023-04-26T15:13:35.225Z,94422.38
2023-04-26T15:16:07.338Z,94431.31
2023-04-26T15:18:37.666Z,94429.19
2023-04-26T15:21:06.034Z,94429.81
2023-04-26T15:23:34.331Z,94432.19
2023-04-26T15:26:03.539Z,94434.91
2023-04-26T15:28:32.033Z,94433.69
2023-04-26T15:31:03.968Z,94427.28
2023-04-26T15:33:33.639Z,94437.03
2023-04-26T15:36:03.324Z,94433.84
2023-04-26T15:38:31.594Z,94432.84
2023-04-26T15:40:59.973Z,94430.56
2023-04-26T15:43:28.293Z,94425.88
2023-04-26T15:45:56.891Z,94355.78
2023-04-26T15:48:26.185Z,94426.31
2023-04-26T15:50:56.928Z,94356.78
2023-04-26T15:53:27.094Z,94433.28
2023-04-26T15:55:55.409Z,94435.28
2023-04-26T15:58:23.844Z,94417.06
2023-04-26T16:00:52.276Z,94427.28
2023-04-26T16:03:20.947Z,94433.72
2023-04-26T16:05:49.422Z,94422.66
2023-04-26T16:08:36.790Z,94439.72
2023-04-26T16:11:10.014Z,94454.13
2023-04-26T16:13:38.431Z,94433.59
2023-04-26T16:16:09.210Z,94454.03
2023-04-26T16:18:39.777Z,94452.44
2023-04-26T16:21:10.082Z,94447.81
2023-04-26T16:23:38.555Z,94445.97
2023-04-26T16:26:07.270Z,94411.25
2023-04-26T16:28:37.110Z,94444.16
2023-04-26T16:31:06.335Z,94471.28
2023-04-26T16:33:34.765Z,94462.84
2023-04-26T16:36:03.268Z,94454.47
2023-04-26T16:38:31.538Z,94400.66
2023-04-26T16:41:01.874Z,94472.50
2023-04-26T16:43:31.174Z,94475.06
2023-04-26T16:46:01.963Z,94426.50
2023-04-26T16:48:32.160Z,94481.03
2023-04-26T16:51:01.008Z,94482.69
2023-04-26T16:53:29.895Z,94488.69
2023-04-26T16:55:58.711Z,94488.72
2023-04-26T16:58:27.533Z,94488.88
2023-04-26T17:00:55.893Z,94486.50
2023-04-26T17:03:26.078Z,94486.22
2023-04-26T17:05:54.685Z,94482.78
2023-04-26T17:08:23.079Z,94498.13
2023-04-26T17:10:52.018Z,94488.47
2023-04-26T17:13:20.445Z,94495.03
2023-04-26T17:15:48.934Z,94492.94
2023-04-26T17:18:17.242Z,94501.88
2023-04-26T17:20:48.513Z,94508.81
2023-04-26T17:23:16.769Z,94515.13
2023-04-26T17:25:45.127Z,94512.81
2023-04-26T17:28:14.392Z,94512.78
2023-04-26T17:30:42.670Z,94542.59
2023-04-26T17:33:11.052Z,94516.72
2023-04-26T17:35:39.452Z,94521.91
2023-04-26T17:38:09.094Z,94481.91
2023-04-26T17:40:37.417Z,94527.66
2023-04-26T17:43:05.775Z,94474.53
2023-04-26T17:45:34.173Z,94478.84
2023-04-26T17:48:02.533Z,94488.31
2023-04-26T17:50:31.237Z,94542.41
2023-04-26T17:52:59.767Z,94542.41
2023-04-26T17:55:29.429Z,94533.06
2023-04-26T17:57:57.694Z,94545.63
2023-04-26T18:00:26.118Z,94511.34
2023-04-26T18:02:56.317Z,94556.66
2023-04-26T18:05:25.129Z,94539.34
2023-04-26T18:07:53.415Z,94496.06
2023-04-26T18:10:22.067Z,94572.97
2023-04-26T18:12:51.971Z,94581.06
2023-04-26T18:15:20.295Z,94577.00
2023-04-26T18:17:48.564Z,94589.19
2023-04-26T18:20:16.973Z,94600.00
2023-04-26T18:22:45.267Z,94597.44
2023-04-26T18:25:13.494Z,94592.84
2023-04-26T18:27:41.724Z,94602.00
2023-04-26T18:30:12.957Z,94604.75
2023-04-26T18:32:41.523Z,94600.22
2023-04-26T18:35:10.475Z,94607.00
2023-04-26T18:37:39.830Z,94611.28
2023-04-26T18:40:09.531Z,94615.56
2023-04-26T18:42:38.971Z,94621.84
2023-04-26T18:45:08.687Z,94613.97
2023-04-26T18:47:38.554Z,94619.09
2023-04-26T18:50:07.959Z,94635.50
2023-04-26T18:52:36.560Z,94538.97
2023-04-26T18:55:05.495Z,94630.53
2023-04-26T18:57:33.762Z,94638.44
2023-04-26T19:00:02.147Z,94641.69
2023-04-26T19:02:30.526Z,94644.38
2023-04-26T19:05:01.471Z,94645.38
2023-04-26T19:07:29.855Z,94633.53
2023-04-26T19:10:00.665Z,94654.50
2023-04-26T19:12:29.149Z,94656.50
2023-04-26T19:14:57.460Z,94648.63
2023-04-26T19:17:26.417Z,94653.59
2023-04-26T19:19:55.458Z,94648.13
2023-04-26T19:22:25.126Z,94647.50
2023-04-26T19:24:53.303Z,94655.34
2023-04-26T19:27:21.498Z,94658.13
2023-04-26T19:29:49.792Z,94658.38
2023-04-26T19:32:19.970Z,94654.50
2023-04-26T19:34:48.352Z,94657.81
2023-04-26T19:37:16.685Z,94652.44
2023-04-26T19:39:46.383Z,94664.13
2023-04-26T19:42:14.647Z,94664.59
2023-04-26T19:44:42.896Z,94652.34
2023-04-26T19:47:11.400Z,94667.47
2023-04-26T19:49:39.801Z,94670.47
2023-04-26T19:52:08.086Z,94671.09
2023-04-26T19:54:37.623Z,94668.28
2023-04-26T19:57:07.438Z,94668.94
2023-04-26T19:59:35.737Z,94535.50
2023-04-26T20:02:06.730Z,94660.63
2023-04-26T20:04:35.198Z,94657.00
2023-04-26T20:07:05.097Z,94663.91
2023-04-26T20:09:34.806Z,94673.81
2023-04-26T20:12:03.202Z,94642.75
2023-04-26T20:14:33.806Z,94666.97
2023-04-26T20:17:02.771Z,94652.25
2023-04-26T20:19:31.153Z,94629.50
2023-04-26T20:21:59.522Z,94677.56
2023-04-26T20:24:29.256Z,94668.00
2023-04-26T20:26:57.806Z,94671.78
2023-04-26T20:29:26.251Z,94668.44
2023-04-26T20:31:56.031Z,94666.72
2023-04-26T20:34:24.506Z,94671.09
2023-04-26T20:36:52.816Z,94671.97
2023-04-26T20:39:21.984Z,94675.22
2023-04-26T20:41:50.392Z,94672.19
2023-04-26T20:44:18.811Z,94637.22
2023-04-26T20:46:47.056Z,94677.19
2023-04-26T20:49:16.771Z,94684.84
2023-04-26T20:51:45.118Z,94692.72
2023-04-26T20:54:13.452Z,94701.13
2023-04-26T20:56:41.703Z,94698.75
2023-04-26T20:59:10.432Z,94594.56
2023-04-26T21:01:38.859Z,94698.09
2023-04-26T21:04:07.264Z,94702.88
2023-04-26T21:06:37.086Z,94703.75
2023-04-26T21:09:05.532Z,94702.41
2023-04-26T21:11:34.022Z,94707.91
2023-04-26T21:14:02.327Z,94703.41
2023-04-26T21:16:30.589Z,94712.81
2023-04-26T21:18:58.886Z,94708.03
2023-04-26T21:21:28.793Z,94724.38
2023-04-26T21:23:58.509Z,94726.63
2023-04-26T21:26:26.767Z,94730.56
2023-04-26T21:28:55.076Z,94657.44
2023-04-26T21:31:23.673Z,94729.69
2023-04-26T21:33:52.084Z,94662.38
2023-04-26T21:36:20.384Z,94728.91
2023-04-26T21:38:48.668Z,94739.09
2023-04-26T21:41:18.386Z,94603.25
2023-04-26T21:43:46.677Z,94740.69
2023-04-26T21:46:14.945Z,94746.63
2023-04-26T21:48:43.482Z,94690.38
2023-04-26T21:51:11.804Z,94758.59
2023-04-26T21:53:40.074Z,94761.34
2023-04-26T21:56:08.978Z,94763.25
2023-04-26T21:58:38.669Z,94759.00
2023-04-26T22:01:10.980Z,94736.59
2023-04-26T22:03:39.919Z,94758.91
2023-04-26T22:06:09.777Z,94754.47
2023-04-26T22:08:38.863Z,94725.59
2023-04-26T22:11:07.372Z,94710.91
2023-04-26T22:13:35.931Z,94761.69
2023-04-26T22:16:06.399Z,94764.16
2023-04-26T22:18:35.511Z,94763.00
2023-04-26T22:21:03.907Z,94768.19
2023-04-26T22:23:32.335Z,94777.59
2023-04-26T22:26:00.822Z,94767.53
2023-04-26T22:28:29.036Z,94774.72
2023-04-26T22:30:57.405Z,94777.50
2023-04-26T22:33:27.137Z,94773.13
2023-04-26T22:35:58.139Z,94777.66
2023-04-26T22:38:26.671Z,94740.16
2023-04-26T22:40:55.720Z,94775.81
2023-04-26T22:43:24.116Z,94779.78
2023-04-26T22:45:52.542Z,94727.56
2023-04-26T22:48:20.864Z,94772.38
2023-04-26T22:50:51.405Z,94751.56
2023-04-26T22:53:19.702Z,94782.16
2023-04-26T22:55:48.017Z,94712.03
2023-04-26T22:58:17.373Z,94764.75
2023-04-26T23:00:45.789Z,94802.00
2023-04-26T23:03:14.093Z,94806.47
2023-04-26T23:05:42.529Z,94805.16
2023-04-26T23:08:12.225Z,94798.25
2023-04-26T23:10:40.929Z,94799.59
2023-04-26T23:13:09.167Z,94801.44
2023-04-26T23:15:37.489Z,94811.22
2023-04-26T23:18:05.863Z,94798.03
2023-04-26T23:20:34.135Z,94802.25
2023-04-26T23:23:02.358Z,94803.56
2023-04-26T23:25:32.033Z,94800.38
2023-04-26T23:28:00.366Z,94798.78
2023-04-26T23:30:28.647Z,94791.16
2023-04-26T23:32:56.991Z,94801.97
2023-04-26T23:35:25.467Z,94802.97
2023-04-26T23:37:53.722Z,94742.19
2023-04-26T23:40:21.989Z,94792.72
2023-04-26T23:42:51.658Z,94795.09
2023-04-26T23:45:20.446Z,94803.22
2023-04-26T23:47:48.678Z,94802.19
2023-04-26T23:50:16.993Z,94807.28
2023-04-26T23:52:45.215Z,94815.75
2023-04-26T23:55:13.878Z,94814.34
2023-04-26T23:57:42.202Z,94814.91
